sensor_id;sensor_type;location;lat;lon;timestamp;pressure;altitude;pressure_sealevel;temperature;humidity
64298;BME280;50639;53.270;7.956;2023-08-30T00:01:48;100743.09;;;14.20;83.86
64298;BME280;50639;53.270;7.956;2023-08-30T00:04:13;100735.06;;;14.23;83.43
64298;BME280;50639;53.270;7.956;2023-08-30T00:06:39;100738.63;;;14.22;83.42
64298;BME280;50639;53.270;7.956;2023-08-30T00:09:04;100741.94;;;14.24;83.53
64298;BME280;50639;53.270;7.956;2023-08-30T00:11:29;100734.81;;;14.26;83.50
64298;BME280;50639;53.270;7.956;2023-08-30T00:14:03;100745.22;;;14.26;83.73
64298;BME280;50639;53.270;7.956;2023-08-30T00:16:31;100739.69;;;14.30;83.86
64298;BME280;50639;53.270;7.956;2023-08-30T00:18:56;100732.59;;;14.32;83.84
64298;BME280;50639;53.270;7.956;2023-08-30T00:21:21;100728.06;;;14.35;83.65
64298;BME280;50639;53.270;7.956;2023-08-30T00:23:47;100732.44;;;14.34;83.58
64298;BME280;50639;53.270;7.956;2023-08-30T00:26:12;100728.31;;;14.31;83.70
64298;BME280;50639;53.270;7.956;2023-08-30T00:28:37;100734.34;;;14.32;83.60
64298;BME280;50639;53.270;7.956;2023-08-30T00:31:03;100725.81;;;14.30;83.78
64298;BME280;50639;53.270;7.956;2023-08-30T00:33:28;100726.78;;;14.29;83.44
64298;BME280;50639;53.270;7.956;2023-08-30T00:35:58;100727.00;;;14.26;83.99
64298;BME280;50639;53.270;7.956;2023-08-30T00:38:23;100729.25;;;14.30;83.73
64298;BME280;50639;53.270;7.956;2023-08-30T00:40:49;100720.63;;;14.30;84.10
64298;BME280;50639;53.270;7.956;2023-08-30T00:43:14;100719.91;;;14.28;83.84
64298;BME280;50639;53.270;7.956;2023-08-30T00:45:40;100712.19;;;14.26;84.28
64298;BME280;50639;53.270;7.956;2023-08-30T00:48:06;100713.28;;;14.24;84.21
64298;BME280;50639;53.270;7.956;2023-08-30T00:50:32;100703.91;;;14.21;83.88
64298;BME280;50639;53.270;7.956;2023-08-30T00:52:59;100707.00;;;14.15;83.97
64298;BME280;50639;53.270;7.956;2023-08-30T00:55:24;100708.41;;;14.08;84.00
64298;BME280;50639;53.270;7.956;2023-08-30T00:57:50;100714.09;;;14.02;84.20
64298;BME280;50639;53.270;7.956;2023-08-30T01:00:15;100712.91;;;13.95;84.06
64298;BME280;50639;53.270;7.956;2023-08-30T01:02:41;100708.84;;;13.91;84.57
64298;BME280;50639;53.270;7.956;2023-08-30T01:05:07;100710.06;;;13.87;84.27
64298;BME280;50639;53.270;7.956;2023-08-30T01:07:33;100708.72;;;13.81;84.50
64298;BME280;50639;53.270;7.956;2023-08-30T01:09:59;100705.66;;;13.76;84.18
64298;BME280;50639;53.270;7.956;2023-08-30T01:12:36;100702.06;;;13.66;84.58
64298;BME280;50639;53.270;7.956;2023-08-30T01:15:35;100701.22;;;13.54;84.65
64298;BME280;50639;53.270;7.956;2023-08-30T01:17:54;100699.44;;;13.55;84.72
64298;BME280;50639;53.270;7.956;2023-08-30T01:20:22;100691.16;;;13.50;85.11
64298;BME280;50639;53.270;7.956;2023-08-30T01:23:07;100693.28;;;13.45;84.55
64298;BME280;50639;53.270;7.956;2023-08-30T01:25:55;100695.16;;;13.43;84.65
64298;BME280;50639;53.270;7.956;2023-08-30T01:28:26;100692.47;;;13.44;84.72
64298;BME280;50639;53.270;7.956;2023-08-30T01:30:52;100689.97;;;13.43;84.71
64298;BME280;50639;53.270;7.956;2023-08-30T01:33:24;100684.16;;;13.39;85.21
64298;BME280;50639;53.270;7.956;2023-08-30T01:35:56;100687.81;;;13.37;85.16
64298;BME280;50639;53.270;7.956;2023-08-30T01:38:25;100676.69;;;13.35;84.91
64298;BME280;50639;53.270;7.956;2023-08-30T01:40:51;100675.03;;;13.34;85.23
64298;BME280;50639;53.270;7.956;2023-08-30T01:43:19;100677.75;;;13.32;85.26
64298;BME280;50639;53.270;7.956;2023-08-30T01:45:45;100676.28;;;13.28;84.66
64298;BME280;50639;53.270;7.956;2023-08-30T01:48:14;100681.84;;;13.24;84.99
64298;BME280;50639;53.270;7.956;2023-08-30T01:50:41;100684.66;;;13.21;84.78
64298;BME280;50639;53.270;7.956;2023-08-30T01:53:08;100684.28;;;13.14;85.05
64298;BME280;50639;53.270;7.956;2023-08-30T01:55:36;100694.78;;;13.12;84.77
64298;BME280;50639;53.270;7.956;2023-08-30T01:58:02;100689.38;;;13.15;84.59
64298;BME280;50639;53.270;7.956;2023-08-30T02:00:27;100697.91;;;13.17;85.04
64298;BME280;50639;53.270;7.956;2023-08-30T02:02:53;100699.34;;;13.22;84.37
64298;BME280;50639;53.270;7.956;2023-08-30T02:05:18;100697.56;;;13.22;84.43
64298;BME280;50639;53.270;7.956;2023-08-30T02:07:57;100684.34;;;13.25;84.56
64298;BME280;50639;53.270;7.956;2023-08-30T02:10:33;100686.84;;;13.27;84.81
64298;BME280;50639;53.270;7.956;2023-08-30T02:13:01;100685.91;;;13.28;85.03
64298;BME280;50639;53.270;7.956;2023-08-30T02:15:29;100694.63;;;13.27;85.01
64298;BME280;50639;53.270;7.956;2023-08-30T02:17:56;100692.03;;;13.27;84.71
64298;BME280;50639;53.270;7.956;2023-08-30T02:20:22;100692.03;;;13.27;84.66
64298;BME280;50639;53.270;7.956;2023-08-30T02:22:48;100688.72;;;13.25;84.95
64298;BME280;50639;53.270;7.956;2023-08-30T02:25:13;100697.34;;;13.25;85.05
64298;BME280;50639;53.270;7.956;2023-08-30T02:27:39;100692.25;;;13.24;85.11
64298;BME280;50639;53.270;7.956;2023-08-30T02:30:05;100688.00;;;13.23;84.94
64298;BME280;50639;53.270;7.956;2023-08-30T02:32:30;100685.59;;;13.19;85.05
64298;BME280;50639;53.270;7.956;2023-08-30T02:34:56;100682.19;;;13.19;85.30
64298;BME280;50639;53.270;7.956;2023-08-30T02:37:22;100686.78;;;13.15;85.55
64298;BME280;50639;53.270;7.956;2023-08-30T02:39:49;100690.41;;;13.13;85.00
64298;BME280;50639;53.270;7.956;2023-08-30T02:42:15;100688.75;;;13.12;85.14
64298;BME280;50639;53.270;7.956;2023-08-30T02:44:40;100689.56;;;13.12;85.59
64298;BME280;50639;53.270;7.956;2023-08-30T02:47:07;100681.47;;;13.17;85.26
64298;BME280;50639;53.270;7.956;2023-08-30T02:49:32;100681.69;;;13.14;86.02
64298;BME280;50639;53.270;7.956;2023-08-30T02:51:58;100685.19;;;13.26;85.91
64298;BME280;50639;53.270;7.956;2023-08-30T02:54:23;100674.53;;;13.29;85.92
64298;BME280;50639;53.270;7.956;2023-08-30T02:56:50;100683.41;;;13.26;85.49
64298;BME280;50639;53.270;7.956;2023-08-30T02:59:15;100682.69;;;13.24;85.78
64298;BME280;50639;53.270;7.956;2023-08-30T03:01:43;100675.94;;;13.22;85.34
64298;BME280;50639;53.270;7.956;2023-08-30T03:04:10;100672.75;;;13.18;85.84
64298;BME280;50639;53.270;7.956;2023-08-30T03:06:36;100673.06;;;13.13;85.47
64298;BME280;50639;53.270;7.956;2023-08-30T03:09:02;100677.75;;;13.08;86.01
64298;BME280;50639;53.270;7.956;2023-08-30T03:11:29;100678.69;;;13.07;86.14
64298;BME280;50639;53.270;7.956;2023-08-30T03:13:55;100684.81;;;13.06;86.46
64298;BME280;50639;53.270;7.956;2023-08-30T03:16:21;100680.34;;;13.08;86.06
64298;BME280;50639;53.270;7.956;2023-08-30T03:18:47;100665.25;;;13.13;86.68
64298;BME280;50639;53.270;7.956;2023-08-30T03:21:13;100663.75;;;13.22;86.12
64298;BME280;50639;53.270;7.956;2023-08-30T03:23:39;100671.22;;;13.27;86.16
64298;BME280;50639;53.270;7.956;2023-08-30T03:26:12;100674.09;;;13.35;85.93
64298;BME280;50639;53.270;7.956;2023-08-30T03:28:38;100672.59;;;13.43;86.23
64298;BME280;50639;53.270;7.956;2023-08-30T03:31:17;100668.22;;;13.44;85.99
64298;BME280;50639;53.270;7.956;2023-08-30T03:33:44;100670.56;;;13.47;85.86
64298;BME280;50639;53.270;7.956;2023-08-30T03:36:11;100650.25;;;13.52;86.23
64298;BME280;50639;53.270;7.956;2023-08-30T03:38:38;100660.19;;;13.58;86.08
64298;BME280;50639;53.270;7.956;2023-08-30T03:41:04;100655.69;;;13.60;86.20
64298;BME280;50639;53.270;7.956;2023-08-30T03:43:31;100652.25;;;13.60;85.94
64298;BME280;50639;53.270;7.956;2023-08-30T03:45:58;100657.09;;;13.64;85.61
64298;BME280;50639;53.270;7.956;2023-08-30T03:48:23;100657.84;;;13.66;85.65
64298;BME280;50639;53.270;7.956;2023-08-30T03:50:49;100657.38;;;13.61;86.10
64298;BME280;50639;53.270;7.956;2023-08-30T03:53:14;100652.25;;;13.60;85.75
64298;BME280;50639;53.270;7.956;2023-08-30T03:55:40;100651.91;;;13.53;86.07
64298;BME280;50639;53.270;7.956;2023-08-30T03:58:06;100651.50;;;13.46;85.78
64298;BME280;50639;53.270;7.956;2023-08-30T04:00:32;100658.13;;;13.39;86.03
64298;BME280;50639;53.270;7.956;2023-08-30T04:02:57;100645.47;;;13.35;86.55
64298;BME280;50639;53.270;7.956;2023-08-30T04:05:22;100644.03;;;13.31;86.37
64298;BME280;50639;53.270;7.956;2023-08-30T04:07:48;100645.44;;;13.24;86.12
64298;BME280;50639;53.270;7.956;2023-08-30T04:10:13;100641.84;;;13.13;86.31
64298;BME280;50639;53.270;7.956;2023-08-30T04:12:39;100634.50;;;13.07;86.87
64298;BME280;50639;53.270;7.956;2023-08-30T04:15:05;100631.78;;;13.09;86.64
64298;BME280;50639;53.270;7.956;2023-08-30T04:17:31;100628.09;;;13.11;86.49
64298;BME280;50639;53.270;7.956;2023-08-30T04:19:56;100630.69;;;13.11;86.40
64298;BME280;50639;53.270;7.956;2023-08-30T04:22:21;100631.34;;;13.15;86.46
64298;BME280;50639;53.270;7.956;2023-08-30T04:24:48;100616.34;;;13.18;86.23
64298;BME280;50639;53.270;7.956;2023-08-30T04:27:14;100621.56;;;13.30;86.02
64298;BME280;50639;53.270;7.956;2023-08-30T04:29:39;100614.00;;;13.38;86.46
64298;BME280;50639;53.270;7.956;2023-08-30T04:32:05;100615.44;;;13.42;86.32
64298;BME280;50639;53.270;7.956;2023-08-30T04:34:32;100608.34;;;13.33;86.11
64298;BME280;50639;53.270;7.956;2023-08-30T04:36:57;100612.00;;;13.30;86.30
64298;BME280;50639;53.270;7.956;2023-08-30T04:39:23;100605.81;;;13.20;86.36
64298;BME280;50639;53.270;7.956;2023-08-30T04:41:50;100603.28;;;13.07;85.95
64298;BME280;50639;53.270;7.956;2023-08-30T04:44:15;100611.97;;;12.95;86.12
64298;BME280;50639;53.270;7.956;2023-08-30T04:46:42;100609.47;;;12.82;86.53
64298;BME280;50639;53.270;7.956;2023-08-30T04:49:08;100616.84;;;12.76;86.34
64298;BME280;50639;53.270;7.956;2023-08-30T04:51:33;100611.53;;;12.66;86.31
64298;BME280;50639;53.270;7.956;2023-08-30T04:53:58;100603.44;;;12.58;86.73
64298;BME280;50639;53.270;7.956;2023-08-30T04:56:24;100604.09;;;12.49;86.51
64298;BME280;50639;53.270;7.956;2023-08-30T04:58:49;100599.34;;;12.43;86.54
64298;BME280;50639;53.270;7.956;2023-08-30T05:01:17;100592.59;;;12.40;86.58
64298;BME280;50639;53.270;7.956;2023-08-30T05:03:46;100586.78;;;12.37;86.03
64298;BME280;50639;53.270;7.956;2023-08-30T05:06:13;100593.97;;;12.33;87.05
64298;BME280;50639;53.270;7.956;2023-08-30T05:08:41;100587.25;;;12.31;86.78
64298;BME280;50639;53.270;7.956;2023-08-30T05:11:07;100585.69;;;12.28;87.08
64298;BME280;50639;53.270;7.956;2023-08-30T05:13:35;100584.97;;;12.26;86.87
64298;BME280;50639;53.270;7.956;2023-08-30T05:16:00;100585.91;;;12.25;87.23
64298;BME280;50639;53.270;7.956;2023-08-30T05:18:25;100584.22;;;12.24;87.07
64298;BME280;50639;53.270;7.956;2023-08-30T05:20:51;100579.03;;;12.24;87.05
64298;BME280;50639;53.270;7.956;2023-08-30T05:23:16;100585.16;;;12.23;86.96
64298;BME280;50639;53.270;7.956;2023-08-30T05:25:42;100578.22;;;12.24;87.06
64298;BME280;50639;53.270;7.956;2023-08-30T05:28:07;100580.81;;;12.24;87.48
64298;BME280;50639;53.270;7.956;2023-08-30T05:30:34;100578.22;;;12.24;87.42
64298;BME280;50639;53.270;7.956;2023-08-30T05:33:10;100577.38;;;12.23;87.39
64298;BME280;50639;53.270;7.956;2023-08-30T05:36:08;100580.81;;;12.24;86.98
64298;BME280;50639;53.270;7.956;2023-08-30T05:38:52;100573.84;;;12.24;87.28
64298;BME280;50639;53.270;7.956;2023-08-30T05:41:47;100578.09;;;12.25;87.15
64298;BME280;50639;53.270;7.956;2023-08-30T05:44:13;100568.44;;;12.27;87.19
64298;BME280;50639;53.270;7.956;2023-08-30T05:46:38;100567.50;;;12.28;87.29
64298;BME280;50639;53.270;7.956;2023-08-30T05:49:04;100563.88;;;12.31;87.47
64298;BME280;50639;53.270;7.956;2023-08-30T05:51:29;100558.78;;;12.29;87.55
64298;BME280;50639;53.270;7.956;2023-08-30T05:53:55;100567.50;;;12.28;87.71
64298;BME280;50639;53.270;7.956;2023-08-30T05:56:21;100561.59;;;12.26;88.40
64298;BME280;50639;53.270;7.956;2023-08-30T05:58:46;100554.41;;;12.30;88.24
64298;BME280;50639;53.270;7.956;2023-08-30T06:01:12;100551.81;;;12.30;88.63
64298;BME280;50639;53.270;7.956;2023-08-30T06:03:37;100555.84;;;12.34;88.50
64298;BME280;50639;53.270;7.956;2023-08-30T06:06:03;100556.47;;;12.37;88.35
64298;BME280;50639;53.270;7.956;2023-08-30T06:08:28;100553.88;;;12.37;88.69
64298;BME280;50639;53.270;7.956;2023-08-30T06:10:54;100558.50;;;12.45;88.39
64298;BME280;50639;53.270;7.956;2023-08-30T06:13:19;100553.53;;;12.42;88.98
64298;BME280;50639;53.270;7.956;2023-08-30T06:15:45;100548.31;;;12.42;88.84
64298;BME280;50639;53.270;7.956;2023-08-30T06:18:10;100556.00;;;12.43;88.44
64298;BME280;50639;53.270;7.956;2023-08-30T06:20:40;100547.28;;;12.44;88.97
64298;BME280;50639;53.270;7.956;2023-08-30T06:23:05;100549.00;;;12.57;88.33
64298;BME280;50639;53.270;7.956;2023-08-30T06:25:30;100549.38;;;12.63;87.63
64298;BME280;50639;53.270;7.956;2023-08-30T06:27:58;100550.94;;;12.66;88.12
64298;BME280;50639;53.270;7.956;2023-08-30T06:30:25;100546.41;;;12.68;87.72
64298;BME280;50639;53.270;7.956;2023-08-30T06:32:50;100544.09;;;12.76;87.57
64298;BME280;50639;53.270;7.956;2023-08-30T06:35:16;100538.06;;;12.75;88.06
64298;BME280;50639;53.270;7.956;2023-08-30T06:37:41;100534.41;;;12.78;87.42
64298;BME280;50639;53.270;7.956;2023-08-30T06:40:07;100541.06;;;12.82;87.52
64298;BME280;50639;53.270;7.956;2023-08-30T06:42:33;100541.63;;;12.86;87.42
64298;BME280;50639;53.270;7.956;2023-08-30T06:44:58;100537.66;;;12.93;87.56
64298;BME280;50639;53.270;7.956;2023-08-30T06:47:24;100532.09;;;12.97;87.42
64298;BME280;50639;53.270;7.956;2023-08-30T06:49:49;100542.41;;;12.99;87.22
64298;BME280;50639;53.270;7.956;2023-08-30T06:52:14;100541.72;;;13.08;86.94
64298;BME280;50639;53.270;7.956;2023-08-30T06:54:40;100545.63;;;13.13;86.87
64298;BME280;50639;53.270;7.956;2023-08-30T06:57:05;100546.00;;;13.20;86.33
64298;BME280;50639;53.270;7.956;2023-08-30T06:59:32;100531.59;;;13.27;86.29
64298;BME280;50639;53.270;7.956;2023-08-30T07:01:57;100531.03;;;13.35;85.75
64298;BME280;50639;53.270;7.956;2023-08-30T07:04:22;100536.56;;;13.41;85.77
64298;BME280;50639;53.270;7.956;2023-08-30T07:06:48;100537.41;;;13.53;85.62
64298;BME280;50639;53.270;7.956;2023-08-30T07:09:14;100540.97;;;13.63;84.73
64298;BME280;50639;53.270;7.956;2023-08-30T07:11:42;100539.16;;;13.75;83.88
64298;BME280;50639;53.270;7.956;2023-08-30T07:14:09;100540.22;;;14.06;83.72
64298;BME280;50639;53.270;7.956;2023-08-30T07:16:34;100540.03;;;14.41;82.09
64298;BME280;50639;53.270;7.956;2023-08-30T07:19:00;100536.88;;;14.58;81.29
64298;BME280;50639;53.270;7.956;2023-08-30T07:21:27;100527.84;;;14.62;80.20
64298;BME280;50639;53.270;7.956;2023-08-30T07:23:52;100525.06;;;14.75;79.85
64298;BME280;50639;53.270;7.956;2023-08-30T07:26:17;100526.19;;;14.82;79.25
64298;BME280;50639;53.270;7.956;2023-08-30T07:28:43;100526.28;;;14.91;79.83
64298;BME280;50639;53.270;7.956;2023-08-30T07:31:08;100525.50;;;15.00;79.26
64298;BME280;50639;53.270;7.956;2023-08-30T07:33:35;100523.66;;;15.12;78.34
64298;BME280;50639;53.270;7.956;2023-08-30T07:36:00;100524.50;;;15.22;77.08
64298;BME280;50639;53.270;7.956;2023-08-30T07:38:26;100524.69;;;15.30;76.88
64298;BME280;50639;53.270;7.956;2023-08-30T07:40:51;100518.88;;;15.48;76.59
64298;BME280;50639;53.270;7.956;2023-08-30T07:43:17;100530.94;;;15.69;75.92
64298;BME280;50639;53.270;7.956;2023-08-30T07:45:42;100526.03;;;15.86;75.24
64298;BME280;50639;53.270;7.956;2023-08-30T07:48:07;100529.59;;;15.85;74.93
64298;BME280;50639;53.270;7.956;2023-08-30T07:50:33;100527.16;;;15.93;73.97
64298;BME280;50639;53.270;7.956;2023-08-30T07:52:58;100521.94;;;16.02;74.20
64298;BME280;50639;53.270;7.956;2023-08-30T07:55:24;100531.88;;;16.08;72.72
64298;BME280;50639;53.270;7.956;2023-08-30T07:57:49;100522.09;;;16.10;73.06
64298;BME280;50639;53.270;7.956;2023-08-30T08:00:14;100530.06;;;15.99;73.59
64298;BME280;50639;53.270;7.956;2023-08-30T08:02:43;100524.00;;;15.89;72.67
64298;BME280;50639;53.270;7.956;2023-08-30T08:05:09;100531.66;;;15.71;73.64
64298;BME280;50639;53.270;7.956;2023-08-30T08:07:38;100532.88;;;15.77;73.99
64298;BME280;50639;53.270;7.956;2023-08-30T08:10:04;100534.53;;;15.78;73.64
64298;BME280;50639;53.270;7.956;2023-08-30T08:12:30;100532.75;;;15.78;72.91
64298;BME280;50639;53.270;7.956;2023-08-30T08:14:55;100529.56;;;15.75;73.38
64298;BME280;50639;53.270;7.956;2023-08-30T08:17:20;100529.94;;;15.61;72.91
64298;BME280;50639;53.270;7.956;2023-08-30T08:19:46;100529.56;;;15.75;73.05
64298;BME280;50639;53.270;7.956;2023-08-30T08:22:11;100536.03;;;15.71;73.36
64298;BME280;50639;53.270;7.956;2023-08-30T08:24:37;100531.13;;;15.87;73.34
64298;BME280;50639;53.270;7.956;2023-08-30T08:27:02;100529.25;;;15.99;73.80
64298;BME280;50639;53.270;7.956;2023-08-30T08:29:28;100521.41;;;15.99;72.95
64298;BME280;50639;53.270;7.956;2023-08-30T08:31:54;100530.50;;;16.14;72.25
64298;BME280;50639;53.270;7.956;2023-08-30T08:34:19;100520.91;;;16.24;71.67
64298;BME280;50639;53.270;7.956;2023-08-30T08:36:45;100510.72;;;16.31;71.06
64298;BME280;50639;53.270;7.956;2023-08-30T08:39:10;100510.44;;;16.34;71.12
64298;BME280;50639;53.270;7.956;2023-08-30T08:41:42;100512.94;;;16.35;70.96
64298;BME280;50639;53.270;7.956;2023-08-30T08:44:09;100508.81;;;16.42;70.95
64298;BME280;50639;53.270;7.956;2023-08-30T08:46:35;100514.56;;;16.46;69.17
64298;BME280;50639;53.270;7.956;2023-08-30T08:49:08;100516.91;;;16.59;70.17
64298;BME280;50639;53.270;7.956;2023-08-30T08:51:34;100526.00;;;16.83;69.84
64298;BME280;50639;53.270;7.956;2023-08-30T08:54:03;100519.66;;;16.86;68.84
64298;BME280;50639;53.270;7.956;2023-08-30T08:56:30;100517.84;;;17.06;68.79
64298;BME280;50639;53.270;7.956;2023-08-30T08:58:56;100517.94;;;17.23;68.19
64298;BME280;50639;53.270;7.956;2023-08-30T09:01:21;100516.13;;;17.24;67.30
64298;BME280;50639;53.270;7.956;2023-08-30T09:03:47;100512.81;;;17.32;67.94
64298;BME280;50639;53.270;7.956;2023-08-30T09:06:13;100517.94;;;17.23;68.09
64298;BME280;50639;53.270;7.956;2023-08-30T09:08:40;100517.38;;;17.20;67.90
64298;BME280;50639;53.270;7.956;2023-08-30T09:11:05;100513.88;;;17.39;67.95
64298;BME280;50639;53.270;7.956;2023-08-30T09:13:31;100518.50;;;17.54;67.80
64298;BME280;50639;53.270;7.956;2023-08-30T09:15:57;100515.41;;;17.68;65.88
64298;BME280;50639;53.270;7.956;2023-08-30T09:18:22;100508.88;;;17.82;65.68
64298;BME280;50639;53.270;7.956;2023-08-30T09:20:53;100511.72;;;17.89;63.98
64298;BME280;50639;53.270;7.956;2023-08-30T09:23:21;100516.56;;;18.11;64.46
64298;BME280;50639;53.270;7.956;2023-08-30T09:25:54;100510.44;;;18.20;63.35
64298;BME280;50639;53.270;7.956;2023-08-30T09:28:20;100513.72;;;18.40;63.23
64298;BME280;50639;53.270;7.956;2023-08-30T09:30:52;100507.13;;;18.36;61.52
64298;BME280;50639;53.270;7.956;2023-08-30T09:33:31;100507.38;;;18.60;61.65
64298;BME280;50639;53.270;7.956;2023-08-30T09:36:00;100500.31;;;18.61;61.12
64298;BME280;50639;53.270;7.956;2023-08-30T09:38:26;100501.28;;;18.60;59.58
64298;BME280;50639;53.270;7.956;2023-08-30T09:40:52;100495.47;;;18.56;59.40
64298;BME280;50639;53.270;7.956;2023-08-30T09:43:19;100491.00;;;18.66;58.51
64298;BME280;50639;53.270;7.956;2023-08-30T09:45:47;100494.75;;;18.82;57.90
64298;BME280;50639;53.270;7.956;2023-08-30T09:48:13;100483.78;;;18.86;57.47
64298;BME280;50639;53.270;7.956;2023-08-30T09:50:41;100484.34;;;18.98;56.77
64298;BME280;50639;53.270;7.956;2023-08-30T09:53:08;100479.50;;;19.11;56.28
64298;BME280;50639;53.270;7.956;2023-08-30T09:55:37;100479.34;;;19.12;55.91
64298;BME280;50639;53.270;7.956;2023-08-30T09:58:03;100479.53;;;19.19;55.65
64298;BME280;50639;53.270;7.956;2023-08-30T10:00:30;100479.22;;;19.22;57.00
64298;BME280;50639;53.270;7.956;2023-08-30T10:02:58;100464.34;;;19.31;56.14
64298;BME280;50639;53.270;7.956;2023-08-30T10:05:24;100471.38;;;19.30;55.85
64298;BME280;50639;53.270;7.956;2023-08-30T10:07:52;100474.81;;;19.23;55.98
64298;BME280;50639;53.270;7.956;2023-08-30T10:10:19;100467.13;;;19.29;56.12
64298;BME280;50639;53.270;7.956;2023-08-30T10:12:46;100471.06;;;19.67;57.56
64298;BME280;50639;53.270;7.956;2023-08-30T10:15:11;100466.16;;;19.80;55.91
64298;BME280;50639;53.270;7.956;2023-08-30T10:17:38;100458.13;;;19.40;57.18
64298;BME280;50639;53.270;7.956;2023-08-30T10:20:07;100460.53;;;19.51;57.11
64298;BME280;50639;53.270;7.956;2023-08-30T10:22:35;100461.88;;;19.71;56.42
64298;BME280;50639;53.270;7.956;2023-08-30T10:25:05;100457.97;;;19.83;56.27
64298;BME280;50639;53.270;7.956;2023-08-30T10:27:34;100462.91;;;19.86;55.75
64298;BME280;50639;53.270;7.956;2023-08-30T10:30:01;100461.13;;;19.95;55.24
64298;BME280;50639;53.270;7.956;2023-08-30T10:32:28;100454.25;;;20.10;56.56
64298;BME280;50639;53.270;7.956;2023-08-30T10:34:54;100454.75;;;20.22;56.18
64298;BME280;50639;53.270;7.956;2023-08-30T10:37:23;100445.38;;;20.19;55.24
64298;BME280;50639;53.270;7.956;2023-08-30T10:39:49;100445.38;;;20.03;56.19
64298;BME280;50639;53.270;7.956;2023-08-30T10:42:16;100441.56;;;20.06;57.45
64298;BME280;50639;53.270;7.956;2023-08-30T10:44:47;100442.50;;;19.72;56.44
64298;BME280;50639;53.270;7.956;2023-08-30T10:47:22;100451.16;;;19.57;57.32
64298;BME280;50639;53.270;7.956;2023-08-30T10:49:49;100446.78;;;19.31;57.08
64298;BME280;50639;53.270;7.956;2023-08-30T10:52:14;100451.81;;;19.16;57.89
64298;BME280;50639;53.270;7.956;2023-08-30T10:54:40;100450.84;;;18.92;58.14
64298;BME280;50639;53.270;7.956;2023-08-30T10:57:13;100447.59;;;18.98;58.91
64298;BME280;50639;53.270;7.956;2023-08-30T10:59:38;100452.81;;;18.90;57.78
64298;BME280;50639;53.270;7.956;2023-08-30T11:02:07;100446.66;;;19.07;59.19
64298;BME280;50639;53.270;7.956;2023-08-30T11:04:33;100445.22;;;19.12;59.39
64298;BME280;50639;53.270;7.956;2023-08-30T11:06:58;100438.50;;;19.18;58.75
64298;BME280;50639;53.270;7.956;2023-08-30T11:09:24;100431.44;;;19.18;56.99
64298;BME280;50639;53.270;7.956;2023-08-30T11:11:51;100435.84;;;19.10;57.49
64298;BME280;50639;53.270;7.956;2023-08-30T11:14:17;100429.09;;;18.99;59.08
64298;BME280;50639;53.270;7.956;2023-08-30T11:16:43;100431.44;;;18.85;60.21
64298;BME280;50639;53.270;7.956;2023-08-30T11:19:09;100436.09;;;18.91;59.90
64298;BME280;50639;53.270;7.956;2023-08-30T11:21:41;100431.28;;;18.86;59.66
64298;BME280;50639;53.270;7.956;2023-08-30T11:24:07;100425.94;;;18.70;60.09
64298;BME280;50639;53.270;7.956;2023-08-30T11:26:33;100430.09;;;18.55;60.65
64298;BME280;50639;53.270;7.956;2023-08-30T11:29:08;100434.47;;;18.28;60.98
64298;BME280;50639;53.270;7.956;2023-08-30T11:31:34;100425.53;;;18.21;60.95
64298;BME280;50639;53.270;7.956;2023-08-30T11:34:00;100431.16;;;18.26;61.79
64298;BME280;50639;53.270;7.956;2023-08-30T11:36:30;100439.72;;;18.28;61.82
64298;BME280;50639;53.270;7.956;2023-08-30T11:38:57;100436.34;;;18.00;62.06
64298;BME280;50639;53.270;7.956;2023-08-30T11:41:24;100427.38;;;17.85;62.88
64298;BME280;50639;53.270;7.956;2023-08-30T11:43:51;100431.09;;;17.83;63.51
64298;BME280;50639;53.270;7.956;2023-08-30T11:46:17;100426.16;;;17.97;63.68
64298;BME280;50639;53.270;7.956;2023-08-30T11:48:44;100431.47;;;18.05;63.22
64298;BME280;50639;53.270;7.956;2023-08-30T11:51:10;100427.13;;;18.14;63.62
64298;BME280;50639;53.270;7.956;2023-08-30T11:53:36;100424.34;;;18.16;62.65
64298;BME280;50639;53.270;7.956;2023-08-30T11:56:02;100434.63;;;18.27;63.29
64298;BME280;50639;53.270;7.956;2023-08-30T11:58:32;100432.28;;;18.41;62.84
64298;BME280;50639;53.270;7.956;2023-08-30T12:00:58;100432.56;;;18.38;63.25
64298;BME280;50639;53.270;7.956;2023-08-30T12:03:26;100423.16;;;18.28;63.39
64298;BME280;50639;53.270;7.956;2023-08-30T12:05:52;100417.25;;;18.52;63.06
64298;BME280;50639;53.270;7.956;2023-08-30T12:08:21;100418.66;;;18.82;62.58
64298;BME280;50639;53.270;7.956;2023-08-30T12:10:48;100423.13;;;18.89;62.60
64298;BME280;50639;53.270;7.956;2023-08-30T12:13:26;100408.84;;;18.92;60.50
64298;BME280;50639;53.270;7.956;2023-08-30T12:15:53;100415.97;;;18.99;61.44
64298;BME280;50639;53.270;7.956;2023-08-30T12:18:31;100415.16;;;19.07;60.02
64298;BME280;50639;53.270;7.956;2023-08-30T12:21:01;100411.13;;;19.21;59.46
64298;BME280;50639;53.270;7.956;2023-08-30T12:23:32;100406.66;;;19.13;60.59
64298;BME280;50639;53.270;7.956;2023-08-30T12:26:05;100410.06;;;19.05;60.41
64298;BME280;50639;53.270;7.956;2023-08-30T12:28:36;100403.84;;;19.06;60.26
64298;BME280;50639;53.270;7.956;2023-08-30T12:31:02;100400.38;;;19.06;59.62
64298;BME280;50639;53.270;7.956;2023-08-30T12:33:29;100399.56;;;19.05;61.02
64298;BME280;50639;53.270;7.956;2023-08-30T12:35:55;100400.03;;;19.01;61.06
64298;BME280;50639;53.270;7.956;2023-08-30T12:38:21;100401.63;;;18.94;60.21
64298;BME280;50639;53.270;7.956;2023-08-30T12:40:49;100401.41;;;18.79;62.30
64298;BME280;50639;53.270;7.956;2023-08-30T12:43:15;100397.41;;;18.49;61.73
64298;BME280;50639;53.270;7.956;2023-08-30T12:45:41;100404.81;;;18.54;63.07
64298;BME280;50639;53.270;7.956;2023-08-30T12:48:08;100397.56;;;18.48;63.66
64298;BME280;50639;53.270;7.956;2023-08-30T12:50:35;100393.66;;;18.52;63.82